createdAt,value
2017-01-10T00:00:02.263Z,100.24
2017-01-10T00:10:02.703Z,100.51
2017-01-10T00:20:02.181Z,100.52
2017-01-10T00:30:02.575Z,100.57
2017-01-10T00:40:02.990Z,100.44
2017-01-10T00:50:02.393Z,100.27
2017-01-10T01:00:02.784Z,100.52
2017-01-10T01:10:02.177Z,100.35
2017-01-10T01:20:02.644Z,100.45
2017-01-10T01:30:02.056Z,100.65
2017-01-10T01:40:02.457Z,100.63
2017-01-10T01:50:02.858Z,100.45
2017-01-10T02:00:02.253Z,100.08
2017-01-10T02:10:02.643Z,100.16
2017-01-10T02:20:02.167Z,99.8
2017-01-10T02:30:02.591Z,99.73
2017-01-10T02:40:02.964Z,99.47
2017-01-10T02:50:02.409Z,99.59
2017-01-10T03:00:02.841Z,99.63
2017-01-10T03:10:02.263Z,99.59
2017-01-10T03:20:02.749Z,99.33
2017-01-10T03:30:02.164Z,99.11
2017-01-10T03:40:02.573Z,98.96
2017-01-10T03:50:03.011Z,99.22
2017-01-10T04:00:02.375Z,99.05
2017-01-10T04:10:02.820Z,99.14
2017-01-10T04:20:02.331Z,99.28
2017-01-10T04:30:02.730Z,99.05
2017-01-10T04:40:02.129Z,99.26
2017-01-10T04:50:02.661Z,99.45
2017-01-10T05:00:02.135Z,99.5
2017-01-10T05:10:02.633Z,99.42
2017-01-10T05:20:02.175Z,99.25
2017-01-10T05:30:02.164Z,99.44
2017-01-10T05:40:02.591Z,99.62
2017-01-10T05:50:03.073Z,99.56
2017-01-10T06:00:02.462Z,99.58
2017-01-10T06:10:02.880Z,99.3
2017-01-10T06:20:02.449Z,99.18
2017-01-10T06:30:02.853Z,98.49
2017-01-10T06:40:02.255Z,98.32
2017-01-10T06:50:02.663Z,98.04
2017-01-10T07:00:02.075Z,98.08
2017-01-10T07:10:02.523Z,97.3
2017-01-10T07:20:03.013Z,97.12
2017-01-10T07:30:02.424Z,96.66
2017-01-10T07:40:02.868Z,96.04
2017-01-10T07:50:02.271Z,95.51
2017-01-10T08:00:02.668Z,94.86
2017-01-10T08:10:02.098Z,94.81
2017-01-10T08:20:02.627Z,95.12
2017-01-10T08:30:03.049Z,93.85
2017-01-10T08:40:02.424Z,93.38
2017-01-10T08:50:02.874Z,94
2017-01-10T09:00:02.234Z,93.65
2017-01-10T09:10:02.650Z,93.31
2017-01-10T09:20:02.090Z,93.83
2017-01-10T09:30:02.507Z,93.27
2017-01-10T09:40:02.913Z,93.05
2017-01-10T09:50:02.283Z,92.58
2017-01-10T10:00:02.658Z,91.84
2017-01-10T10:10:02.061Z,91.58
2017-01-10T10:20:02.563Z,92.13
2017-01-10T10:30:02.927Z,92.35
2017-01-10T10:40:02.293Z,91.68
2017-01-10T10:50:02.769Z,90.77
2017-01-10T11:00:02.183Z,90.24
2017-01-10T11:10:02.585Z,90.23
2017-01-10T11:20:02.099Z,88.68
2017-01-10T11:30:02.523Z,88.7
2017-01-10T11:40:02.940Z,89.01
2017-01-10T11:50:02.357Z,90.1
2017-01-10T12:00:02.790Z,90.56
2017-01-10T12:10:02.209Z,90.77
2017-01-10T12:20:02.718Z,89.38
2017-01-10T12:30:02.116Z,89.29
2017-01-10T12:40:02.545Z,89.26
2017-01-10T12:50:02.984Z,89.26
2017-01-10T13:00:02.399Z,89.65
2017-01-10T13:10:02.831Z,89.91
2017-01-10T13:20:02.279Z,88.91
2017-01-10T13:30:02.690Z,89.04
2017-01-10T13:40:02.084Z,88.63
2017-01-10T13:50:02.503Z,88.95
2017-01-10T14:00:02.913Z,89.29
2017-01-10T14:10:02.326Z,89.39
2017-01-10T14:20:02.865Z,89.8
2017-01-10T14:30:02.262Z,90.03
2017-01-10T14:40:02.713Z,90.3
2017-01-10T14:50:02.170Z,90.63
2017-01-10T15:00:02.585Z,90.74
2017-01-10T15:10:03.011Z,90.45
2017-01-10T15:20:02.499Z,90.58
2017-01-10T15:30:02.943Z,90.71
2017-01-10T15:40:02.264Z,90.81
2017-01-10T15:50:02.715Z,90.99
2017-01-10T16:00:02.099Z,90.96
2017-01-10T16:10:02.528Z,90.8
2017-01-10T16:20:03.076Z,91.18
2017-01-10T16:30:02.493Z,91.51
2017-01-10T16:40:02.943Z,91.6
2017-01-10T16:50:02.352Z,91.55
2017-01-10T17:10:03.050Z,92.64
2017-01-10T17:20:02.559Z,93.01
2017-01-10T17:30:03.060Z,93.31
2017-01-10T17:40:02.498Z,93.87
2017-01-10T17:50:02.981Z,94.34
2017-01-10T18:00:02.376Z,94.49
2017-01-10T18:10:02.781Z,95.09
2017-01-10T18:20:02.280Z,94.99
2017-01-10T18:30:02.715Z,95.08
2017-01-10T18:40:02.443Z,94.77
2017-01-10T18:50:03.003Z,95.01
2017-01-10T19:00:02.453Z,95.34
2017-01-10T19:10:02.863Z,95.53
2017-01-10T19:20:02.774Z,95.23
2017-01-10T19:30:02.327Z,95.86
2017-01-10T19:40:02.930Z,95.9
2017-01-10T19:50:02.255Z,95.98
2017-01-10T20:00:02.639Z,96.09
2017-01-10T20:10:03.050Z,96.15
2017-01-10T20:20:02.572Z,96.26
2017-01-10T20:30:03.280Z,96.31
2017-01-10T20:40:02.714Z,96.17
2017-01-10T20:50:02.115Z,96.15
2017-01-10T21:00:02.553Z,95.98
2017-01-10T21:10:02.999Z,95.94
2017-01-10T21:20:02.539Z,95.67
2017-01-10T21:30:02.941Z,95.66
2017-01-10T21:40:02.363Z,95.63
2017-01-10T21:50:02.855Z,95.7
2017-01-10T22:00:02.232Z,95.63
2017-01-10T22:10:02.667Z,95.73
2017-01-10T22:20:02.186Z,95.76
2017-01-10T22:30:02.572Z,95.86
2017-01-10T22:40:02.984Z,95.62
2017-01-10T22:50:02.386Z,95.38
2017-01-10T23:00:03.840Z,95.41
2017-01-10T23:10:02.231Z,95.38
2017-01-10T23:20:02.741Z,95.71
2017-01-10T23:30:02.134Z,95.63
2017-01-10T23:40:02.545Z,95.51
2017-01-10T23:50:02.985Z,95.45
